createdAt,value
2019-03-24T00:01:27.724Z,99722.86
2019-03-24T00:03:54.770Z,99724.00
2019-03-24T00:06:21.918Z,99720.92
2019-03-24T00:08:49.357Z,99729.58
2019-03-24T00:11:16.127Z,99730.05
2019-03-24T00:13:43.004Z,99732.27
2019-03-24T00:16:09.906Z,99726.50
2019-03-24T00:18:37.239Z,99727.42
2019-03-24T00:21:04.130Z,99728.03
2019-03-24T00:23:30.901Z,99722.02
2019-03-24T00:25:59.321Z,99720.35
2019-03-24T00:28:26.545Z,99716.30
2019-03-24T00:30:53.344Z,99708.94
2019-03-24T00:33:20.228Z,99708.09
2019-03-24T00:35:47.460Z,99707.44
2019-03-24T00:38:14.359Z,99710.02
2019-03-24T00:40:41.578Z,99701.17
2019-03-24T00:43:10.306Z,99701.92
2019-03-24T00:45:38.163Z,99706.44
2019-03-24T00:48:05.732Z,99701.30
2019-03-24T00:50:32.997Z,99697.37
2019-03-24T00:53:00.919Z,99692.48
2019-03-24T00:55:29.015Z,99686.36
2019-03-24T00:57:56.016Z,99683.83
2019-03-24T01:00:43.202Z,99692.81
2019-03-24T01:03:10.532Z,99691.52
2019-03-24T01:05:38.086Z,99687.53
2019-03-24T01:08:05.205Z,99687.20
2019-03-24T01:10:32.473Z,99689.00
2019-03-24T01:12:59.905Z,99685.56
2019-03-24T01:15:27.509Z,99685.00
2019-03-24T01:17:57.324Z,99680.39
2019-03-24T01:20:24.182Z,99678.09
2019-03-24T01:22:51.215Z,99671.18
2019-03-24T01:25:21.029Z,99662.27
2019-03-24T01:27:47.820Z,99651.69
2019-03-24T01:30:15.462Z,99655.23
2019-03-24T01:32:45.395Z,99651.19
2019-03-24T01:35:12.649Z,99648.78
2019-03-24T01:37:39.525Z,99650.41
2019-03-24T01:40:07.252Z,99645.63
2019-03-24T01:42:34.303Z,99640.00
2019-03-24T01:45:01.798Z,99639.80
2019-03-24T01:47:28.741Z,99651.86
2019-03-24T01:49:55.939Z,99643.51
2019-03-24T01:52:23.024Z,99641.42
2019-03-24T01:54:54.141Z,99635.91
2019-03-24T01:57:20.975Z,99630.64
2019-03-24T01:59:47.785Z,99629.02
2019-03-24T02:02:16.428Z,99633.57
2019-03-24T02:04:43.180Z,99630.98
2019-03-24T02:07:10.089Z,99629.41
2019-03-24T02:09:37.212Z,99628.67
2019-03-24T02:12:04.310Z,99631.93
2019-03-24T02:14:31.099Z,99622.23
2019-03-24T02:16:59.289Z,99623.62
2019-03-24T02:19:26.491Z,99621.05
2019-03-24T02:21:53.351Z,99621.20
2019-03-24T02:24:20.978Z,99619.37
2019-03-24T02:26:48.329Z,99622.06
2019-03-24T02:29:15.609Z,99625.84
2019-03-24T02:31:42.580Z,99618.52
2019-03-24T02:34:09.686Z,99620.32
2019-03-24T02:36:36.455Z,99622.02
2019-03-24T02:39:06.258Z,99623.80
2019-03-24T02:41:33.045Z,99624.48
2019-03-24T02:44:00.035Z,99623.49
2019-03-24T02:46:27.033Z,99625.61
2019-03-24T02:48:56.475Z,99621.73
2019-03-24T02:51:26.538Z,99626.52
2019-03-24T02:53:54.141Z,99620.66
2019-03-24T02:56:21.423Z,99618.66
2019-03-24T02:58:48.297Z,99613.80
2019-03-24T03:01:15.470Z,99613.63
2019-03-24T03:03:42.279Z,99609.52
2019-03-24T03:06:09.477Z,99612.91
2019-03-24T03:08:36.755Z,99612.44
2019-03-24T03:11:04.179Z,99620.59
2019-03-24T03:13:31.471Z,99614.00
2019-03-24T03:15:58.575Z,99606.28
2019-03-24T03:18:25.935Z,99610.86
2019-03-24T03:20:52.986Z,99615.89
2019-03-24T03:23:20.253Z,99613.69
2019-03-24T03:25:47.402Z,99609.29
2019-03-24T03:28:15.845Z,99608.92
2019-03-24T03:30:43.065Z,99606.75
2019-03-24T03:33:10.247Z,99609.26
2019-03-24T03:35:37.058Z,99607.50
2019-03-24T03:38:04.133Z,99608.14
2019-03-24T03:40:30.992Z,99611.83
2019-03-24T03:42:58.122Z,99612.06
2019-03-24T03:45:28.879Z,99617.52
2019-03-24T03:47:55.939Z,99610.66
2019-03-24T03:50:22.898Z,99610.03
2019-03-24T03:52:49.688Z,99605.54
2019-03-24T03:55:16.614Z,99607.79
2019-03-24T03:57:43.476Z,99601.84
2019-03-24T04:00:10.760Z,99603.55
2019-03-24T04:02:38.025Z,99602.14
2019-03-24T04:05:05.348Z,99600.67
2019-03-24T04:07:32.369Z,99596.17
2019-03-24T04:10:00.034Z,99595.11
2019-03-24T04:12:27.103Z,99596.40
2019-03-24T04:14:54.621Z,99592.28
2019-03-24T04:17:22.086Z,99590.88
2019-03-24T04:19:50.465Z,99585.70
2019-03-24T04:22:17.429Z,99583.80
2019-03-24T04:24:44.488Z,99585.75
2019-03-24T04:27:11.264Z,99578.67
2019-03-24T04:29:38.175Z,99584.77
2019-03-24T04:32:05.162Z,99584.56
2019-03-24T04:34:32.202Z,99577.73
2019-03-24T04:36:59.247Z,99576.58
2019-03-24T04:39:29.390Z,99576.92
2019-03-24T04:41:56.269Z,99573.32
2019-03-24T04:44:23.064Z,99568.04
2019-03-24T04:46:51.804Z,99567.04
2019-03-24T04:49:18.707Z,99574.36
2019-03-24T04:51:45.749Z,99573.08
2019-03-24T04:54:12.696Z,99580.11
2019-03-24T04:56:39.910Z,99572.39
2019-03-24T04:59:07.081Z,99567.95
2019-03-24T05:01:34.352Z,99569.09
2019-03-24T05:04:01.325Z,99570.44
2019-03-24T05:06:28.580Z,99569.41
2019-03-24T05:08:59.439Z,99569.75
2019-03-24T05:11:28.003Z,99572.72
2019-03-24T05:13:56.139Z,99568.06
2019-03-24T05:16:24.029Z,99567.27
2019-03-24T05:18:50.829Z,99576.05
2019-03-24T05:21:17.793Z,99577.57
2019-03-24T05:23:46.125Z,99576.45
2019-03-24T05:26:13.508Z,99579.14
2019-03-24T05:28:40.788Z,99581.20
2019-03-24T05:31:08.322Z,99582.66
2019-03-24T05:33:35.323Z,99571.42
2019-03-24T05:36:02.165Z,99572.13
2019-03-24T05:38:28.981Z,99572.05
2019-03-24T05:40:55.925Z,99572.45
2019-03-24T05:43:22.716Z,99567.81
2019-03-24T05:45:50.221Z,99572.84
2019-03-24T05:48:16.985Z,99575.44
2019-03-24T05:50:43.804Z,99569.64
2019-03-24T05:53:10.918Z,99571.96
2019-03-24T05:55:38.375Z,99577.25
2019-03-24T05:58:05.319Z,99577.31
2019-03-24T06:00:32.241Z,99579.23
2019-03-24T06:02:59.295Z,99579.77
2019-03-24T06:05:26.348Z,99572.86
2019-03-24T06:07:53.510Z,99573.92
2019-03-24T06:10:20.740Z,99573.58
2019-03-24T06:12:47.515Z,99566.50
2019-03-24T06:15:14.941Z,99570.41
2019-03-24T06:17:47.799Z,99574.20
2019-03-24T06:20:12.869Z,99565.92
2019-03-24T06:22:39.789Z,99567.23
2019-03-24T06:25:06.963Z,99562.72
2019-03-24T06:27:34.114Z,99570.88
2019-03-24T06:30:01.014Z,99569.90
2019-03-24T06:32:27.917Z,99575.33
2019-03-24T06:34:54.981Z,99575.29
2019-03-24T06:37:22.290Z,99574.02
2019-03-24T06:39:49.152Z,99579.31
2019-03-24T06:42:16.288Z,99574.59
2019-03-24T06:44:43.837Z,99570.59
2019-03-24T06:47:10.703Z,99571.22
2019-03-24T06:49:37.898Z,99566.92
2019-03-24T06:52:05.048Z,99568.64
2019-03-24T06:54:31.945Z,99571.38
2019-03-24T06:56:58.925Z,99569.21
2019-03-24T06:59:26.094Z,99572.75
2019-03-24T07:01:53.431Z,99565.41
2019-03-24T07:04:20.313Z,99571.22
2019-03-24T07:06:47.219Z,99569.07
2019-03-24T07:09:14.286Z,99566.45
2019-03-24T07:11:41.213Z,99564.84
2019-03-24T07:14:08.361Z,99560.59
2019-03-24T07:16:35.242Z,99572.11
2019-03-24T07:19:02.347Z,99576.53
2019-03-24T07:21:29.336Z,99573.63
2019-03-24T07:23:56.292Z,99567.92
2019-03-24T07:26:23.087Z,99569.97
2019-03-24T07:28:49.891Z,99569.69
2019-03-24T07:31:17.079Z,99567.08
2019-03-24T07:33:47.429Z,99569.15
2019-03-24T07:36:14.475Z,99566.36
2019-03-24T07:38:42.039Z,99559.77
2019-03-24T07:41:09.186Z,99562.83
2019-03-24T07:43:36.711Z,99563.67
2019-03-24T07:46:03.808Z,99555.45
2019-03-24T07:48:30.573Z,99559.34
2019-03-24T07:50:57.487Z,99554.87
2019-03-24T07:53:24.366Z,99556.81
2019-03-24T07:55:51.798Z,99558.78
2019-03-24T07:58:19.058Z,99556.39
2019-03-24T08:00:46.593Z,99560.23
2019-03-24T08:03:13.354Z,99556.80
2019-03-24T08:05:40.380Z,99558.52
2019-03-24T08:08:07.170Z,99560.81
2019-03-24T08:10:34.594Z,99561.70
2019-03-24T08:13:01.590Z,99561.77
2019-03-24T08:15:31.266Z,99556.98
2019-03-24T08:17:58.417Z,99558.09
2019-03-24T08:20:26.855Z,99556.22
2019-03-24T08:22:54.418Z,99549.70
2019-03-24T08:25:21.445Z,99556.48
2019-03-24T08:27:48.650Z,99559.69
2019-03-24T08:30:21.133Z,99562.09
2019-03-24T08:32:48.525Z,99550.95
2019-03-24T08:35:15.740Z,99550.91
2019-03-24T08:37:43.944Z,99552.75
2019-03-24T08:40:10.997Z,99552.70
2019-03-24T08:42:40.081Z,99549.41
2019-03-24T08:45:12.667Z,99547.59
2019-03-24T08:47:39.885Z,99541.45
2019-03-24T08:50:07.127Z,99534.66
2019-03-24T08:52:34.237Z,99532.47
2019-03-24T08:55:01.334Z,99532.52
2019-03-24T08:57:32.413Z,99530.22
2019-03-24T08:59:59.041Z,99519.02
2019-03-24T09:02:26.417Z,99519.64
2019-03-24T09:04:53.354Z,99514.70
2019-03-24T09:07:20.661Z,99514.77
2019-03-24T09:09:47.758Z,99520.08
2019-03-24T09:12:15.007Z,99519.64
2019-03-24T09:14:42.261Z,99519.92
2019-03-24T09:17:09.416Z,99521.64
2019-03-24T09:19:36.224Z,99521.89
2019-03-24T09:22:03.383Z,99515.98
2019-03-24T09:24:30.532Z,99510.16
2019-03-24T09:26:57.527Z,99514.94
2019-03-24T09:29:24.449Z,99512.98
2019-03-24T09:31:53.461Z,99517.77
2019-03-24T09:34:20.733Z,99512.70
2019-03-24T09:36:47.644Z,99507.41
2019-03-24T09:39:14.528Z,99504.95
2019-03-24T09:41:41.306Z,99502.97
2019-03-24T09:44:08.489Z,99497.80
2019-03-24T09:46:35.453Z,99494.03
2019-03-24T09:49:03.496Z,99488.88
2019-03-24T09:51:30.708Z,99486.68
2019-03-24T09:53:58.090Z,99484.22
2019-03-24T09:56:27.027Z,99485.63
2019-03-24T09:58:54.229Z,99483.09
2019-03-24T10:01:21.244Z,99480.71
2019-03-24T10:03:48.087Z,99481.78
2019-03-24T10:06:15.397Z,99479.40
2019-03-24T10:08:47.323Z,99481.52
2019-03-24T10:11:13.751Z,99472.14
2019-03-24T10:13:40.638Z,99474.81
2019-03-24T10:16:07.566Z,99463.55
2019-03-24T10:18:34.474Z,99470.55
2019-03-24T10:21:01.357Z,99472.19
2019-03-24T10:23:29.825Z,99469.67
2019-03-24T10:25:56.925Z,99471.17
2019-03-24T10:28:24.076Z,99471.83
2019-03-24T10:30:51.498Z,99475.05
2019-03-24T10:33:19.256Z,99472.95
2019-03-24T10:35:46.093Z,99475.38
2019-03-24T10:38:14.465Z,99468.61
2019-03-24T10:40:41.834Z,99475.77
2019-03-24T10:43:09.130Z,99466.65
2019-03-24T10:45:37.090Z,99469.84
2019-03-24T10:48:04.506Z,99474.31
2019-03-24T10:50:32.001Z,99473.65
2019-03-24T10:52:59.443Z,99472.33
2019-03-24T10:55:28.421Z,99477.44
2019-03-24T10:57:55.840Z,99476.63
2019-03-24T11:00:37.439Z,99474.11
2019-03-24T11:03:06.103Z,99470.97
2019-03-24T11:05:33.344Z,99474.47
2019-03-24T11:08:00.410Z,99470.16
2019-03-24T11:10:27.765Z,99469.41
2019-03-24T11:12:54.791Z,99475.13
2019-03-24T11:15:22.209Z,99473.97
2019-03-24T11:17:49.802Z,99477.55
2019-03-24T11:20:16.912Z,99473.44
2019-03-24T11:22:43.779Z,99474.25
2019-03-24T11:25:11.210Z,99474.15
2019-03-24T11:27:38.434Z,99472.00
2019-03-24T11:30:12.666Z,99474.02
2019-03-24T11:32:40.439Z,99469.13
2019-03-24T11:35:08.965Z,99460.17
2019-03-24T11:37:36.208Z,99464.41
2019-03-24T11:40:07.408Z,99457.42
2019-03-24T11:42:34.957Z,99458.42
2019-03-24T11:45:05.213Z,99457.01
2019-03-24T11:47:32.431Z,99458.31
2019-03-24T11:49:59.800Z,99450.20
2019-03-24T11:52:27.588Z,99442.64
2019-03-24T11:54:54.580Z,99440.73
2019-03-24T11:57:21.715Z,99436.79
2019-03-24T11:59:49.051Z,99430.61
2019-03-24T12:02:16.130Z,99429.30
2019-03-24T12:04:43.064Z,99429.96
2019-03-24T12:07:09.866Z,99424.58
2019-03-24T12:09:36.727Z,99415.36
2019-03-24T12:12:03.817Z,99415.94
2019-03-24T12:14:30.962Z,99408.95
2019-03-24T12:16:57.794Z,99412.61
2019-03-24T12:19:24.885Z,99408.63
2019-03-24T12:21:52.001Z,99404.55
2019-03-24T12:24:19.167Z,99396.70
2019-03-24T12:26:46.390Z,99396.89
2019-03-24T12:29:13.881Z,99405.31
2019-03-24T12:31:40.786Z,99400.53
2019-03-24T12:34:08.684Z,99388.62
2019-03-24T12:36:35.567Z,99392.89
2019-03-24T12:39:04.894Z,99382.49
2019-03-24T12:41:32.235Z,99382.05
2019-03-24T12:43:59.955Z,99383.20
2019-03-24T12:46:26.867Z,99382.62
2019-03-24T12:48:53.774Z,99380.77
2019-03-24T12:51:21.065Z,99381.89
2019-03-24T12:53:47.825Z,99382.54
2019-03-24T12:56:14.727Z,99374.84
2019-03-24T12:58:41.851Z,99382.97
2019-03-24T13:01:09.013Z,99385.43
2019-03-24T13:03:36.235Z,99383.78
2019-03-24T13:06:03.639Z,99387.34
2019-03-24T13:08:30.794Z,99380.26
2019-03-24T13:10:57.641Z,99374.52
2019-03-24T13:13:25.289Z,99378.46
2019-03-24T13:15:52.304Z,99380.06
2019-03-24T13:18:19.515Z,99379.42
2019-03-24T13:20:46.291Z,99372.25
2019-03-24T13:23:13.302Z,99368.71
2019-03-24T13:25:40.041Z,99364.54
2019-03-24T13:28:08.717Z,99361.77
2019-03-24T13:30:35.771Z,99363.63
2019-03-24T13:33:02.841Z,99363.25
2019-03-24T13:35:29.706Z,99367.88
2019-03-24T13:37:56.705Z,99361.16
2019-03-24T13:40:23.734Z,99361.61
2019-03-24T13:42:50.922Z,99359.77
2019-03-24T13:45:18.162Z,99358.72
2019-03-24T13:47:45.050Z,99358.51
2019-03-24T13:50:12.012Z,99354.30
2019-03-24T13:52:38.877Z,99348.78
2019-03-24T13:55:06.402Z,99354.58
2019-03-24T13:57:33.165Z,99357.48
2019-03-24T14:00:00.311Z,99356.27
2019-03-24T14:02:27.524Z,99353.92
2019-03-24T14:04:54.816Z,99359.04
2019-03-24T14:07:21.684Z,99358.06
2019-03-24T14:09:48.848Z,99351.38
2019-03-24T14:12:15.827Z,99359.14
2019-03-24T14:14:42.749Z,99357.78
2019-03-24T14:17:09.524Z,99347.95
2019-03-24T14:19:36.797Z,99346.59
2019-03-24T14:22:04.118Z,99342.02
2019-03-24T14:24:30.898Z,99343.22
2019-03-24T14:26:57.837Z,99347.23
2019-03-24T14:29:27.086Z,99350.44
2019-03-24T14:31:53.708Z,99354.87
2019-03-24T14:34:21.113Z,99353.68
2019-03-24T14:36:48.264Z,99349.41
2019-03-24T14:39:15.197Z,99347.83
2019-03-24T14:41:42.272Z,99345.94
2019-03-24T14:44:09.295Z,99348.95
2019-03-24T14:46:36.226Z,99346.03
2019-03-24T14:49:03.280Z,99347.48
2019-03-24T14:51:30.653Z,99348.48
2019-03-24T14:53:57.769Z,99347.72
2019-03-24T14:56:25.997Z,99347.84
2019-03-24T14:58:52.756Z,99348.43
2019-03-24T15:01:19.636Z,99345.74
2019-03-24T15:03:46.600Z,99343.84
2019-03-24T15:06:13.411Z,99340.91
2019-03-24T15:08:40.163Z,99342.59
2019-03-24T15:11:07.584Z,99346.58
2019-03-24T15:13:34.691Z,99336.68
2019-03-24T15:16:04.706Z,99345.86
2019-03-24T15:18:31.480Z,99341.93
2019-03-24T15:21:05.705Z,99342.86
2019-03-24T15:23:30.509Z,99336.56
2019-03-24T15:25:57.803Z,99336.94
2019-03-24T15:28:24.843Z,99335.39
2019-03-24T15:30:51.809Z,99334.18
2019-03-24T15:33:18.539Z,99337.23
2019-03-24T15:35:45.530Z,99340.56
2019-03-24T15:38:12.386Z,99332.83
2019-03-24T15:40:39.219Z,99335.91
2019-03-24T15:43:09.258Z,99336.80
2019-03-24T15:45:35.978Z,99338.66
2019-03-24T15:48:03.482Z,99340.98
2019-03-24T15:50:30.499Z,99338.03
2019-03-24T15:52:57.334Z,99349.39
2019-03-24T15:55:24.270Z,99346.99
2019-03-24T15:57:51.140Z,99350.92
2019-03-24T16:00:32.850Z,99355.77
2019-03-24T16:03:01.783Z,99345.87
2019-03-24T16:05:28.608Z,99353.78
2019-03-24T16:07:55.491Z,99351.85
2019-03-24T16:10:22.226Z,99352.83
2019-03-24T16:12:49.112Z,99350.64
2019-03-24T16:15:16.285Z,99354.02
2019-03-24T16:17:43.043Z,99355.95
2019-03-24T16:20:10.337Z,99358.76
2019-03-24T16:22:37.371Z,99350.62
2019-03-24T16:25:06.507Z,99356.57
2019-03-24T16:27:35.135Z,99354.96
2019-03-24T16:30:05.584Z,99354.14
2019-03-24T16:32:34.429Z,99354.23
2019-03-24T16:35:01.175Z,99345.55
2019-03-24T16:37:27.955Z,99349.64
2019-03-24T16:39:54.703Z,99357.80
2019-03-24T16:42:21.644Z,99359.75
2019-03-24T16:44:48.536Z,99361.70
2019-03-24T16:47:15.513Z,99364.09
2019-03-24T16:49:44.576Z,99372.73
2019-03-24T16:52:11.824Z,99365.11
2019-03-24T16:54:38.842Z,99362.63
2019-03-24T16:57:05.770Z,99359.55
2019-03-24T16:59:32.647Z,99360.31
2019-03-24T17:01:59.617Z,99354.61
2019-03-24T17:04:26.365Z,99359.20
2019-03-24T17:06:53.106Z,99358.45
2019-03-24T17:09:19.881Z,99359.09
2019-03-24T17:11:46.668Z,99360.45
2019-03-24T17:14:13.611Z,99358.34
2019-03-24T17:16:40.359Z,99356.88
2019-03-24T17:19:07.306Z,99356.38
2019-03-24T17:21:35.925Z,99356.73
2019-03-24T17:24:03.365Z,99355.81
2019-03-24T17:26:30.227Z,99367.28
2019-03-24T17:28:57.002Z,99372.12
2019-03-24T17:31:24.040Z,99367.73
2019-03-24T17:33:50.926Z,99372.62
2019-03-24T17:36:17.670Z,99373.61
2019-03-24T17:38:44.614Z,99367.03
2019-03-24T17:41:11.806Z,99376.47
2019-03-24T17:43:38.563Z,99377.20
2019-03-24T17:46:05.932Z,99375.23
2019-03-24T17:48:35.298Z,99378.83
2019-03-24T17:51:02.051Z,99381.92
2019-03-24T17:53:29.072Z,99382.55
2019-03-24T17:55:56.274Z,99372.95
2019-03-24T17:58:23.298Z,99376.96
2019-03-24T18:00:52.041Z,99374.11
2019-03-24T18:03:18.980Z,99385.09
2019-03-24T18:05:46.198Z,99390.97
2019-03-24T18:08:12.972Z,99399.15
2019-03-24T18:10:40.275Z,99403.81
2019-03-24T18:13:07.088Z,99408.08
2019-03-24T18:15:34.002Z,99406.72
2019-03-24T18:18:02.897Z,99404.36
2019-03-24T18:20:34.492Z,99401.27
2019-03-24T18:23:01.469Z,99402.70
2019-03-24T18:25:28.686Z,99401.86
2019-03-24T18:27:55.797Z,99409.70
2019-03-24T18:30:24.059Z,99407.55
2019-03-24T18:32:50.937Z,99415.47
2019-03-24T18:35:17.873Z,99416.38
2019-03-24T18:37:44.901Z,99410.48
2019-03-24T18:40:12.249Z,99409.48
2019-03-24T18:42:39.387Z,99412.50
2019-03-24T18:45:10.058Z,99415.55
2019-03-24T18:47:39.333Z,99418.02
2019-03-24T18:50:09.491Z,99411.86
2019-03-24T18:52:36.455Z,99421.75
2019-03-24T18:55:07.616Z,99425.09
2019-03-24T18:57:34.591Z,99432.83
2019-03-24T19:00:08.304Z,99426.02
2019-03-24T19:02:35.291Z,99427.38
2019-03-24T19:05:06.338Z,99426.88
2019-03-24T19:07:33.208Z,99414.68
2019-03-24T19:10:00.371Z,99419.30
2019-03-24T19:12:27.192Z,99418.02
2019-03-24T19:14:54.063Z,99421.44
2019-03-24T19:17:21.400Z,99421.19
2019-03-24T19:19:48.912Z,99419.58
2019-03-24T19:22:15.629Z,99422.84
2019-03-24T19:24:42.514Z,99416.06
2019-03-24T19:27:09.510Z,99420.16
2019-03-24T19:29:39.498Z,99415.15
2019-03-24T19:32:06.687Z,99413.79
2019-03-24T19:34:33.536Z,99413.25
2019-03-24T19:37:01.316Z,99410.88
2019-03-24T19:39:28.668Z,99414.23
2019-03-24T19:41:55.524Z,99424.02
2019-03-24T19:44:22.851Z,99420.79
2019-03-24T19:46:50.779Z,99415.31
2019-03-24T19:49:17.958Z,99413.45
2019-03-24T19:51:44.761Z,99405.72
2019-03-24T19:54:11.632Z,99405.55
2019-03-24T19:56:38.512Z,99408.05
2019-03-24T19:59:05.873Z,99411.38
2019-03-24T20:01:32.732Z,99415.27
2019-03-24T20:04:00.917Z,99414.66
2019-03-24T20:06:27.869Z,99409.92
2019-03-24T20:08:54.849Z,99406.92
2019-03-24T20:11:21.732Z,99403.20
2019-03-24T20:13:49.563Z,99403.20
2019-03-24T20:16:16.415Z,99399.44
2019-03-24T20:18:43.665Z,99402.10
2019-03-24T20:21:10.558Z,99405.14
2019-03-24T20:23:38.808Z,99397.48
2019-03-24T20:26:06.124Z,99396.41
2019-03-24T20:28:33.379Z,99395.98
2019-03-24T20:31:00.149Z,99397.78
2019-03-24T20:33:27.000Z,99402.17
2019-03-24T20:35:54.061Z,99399.99
2019-03-24T20:38:21.792Z,99401.35
2019-03-24T20:40:48.688Z,99400.05
2019-03-24T20:43:16.073Z,99398.72
2019-03-24T20:45:43.030Z,99400.95
2019-03-24T20:48:09.904Z,99403.82
2019-03-24T20:50:37.118Z,99400.33
2019-03-24T20:53:17.313Z,99399.52
2019-03-24T20:55:34.452Z,99400.95
2019-03-24T20:58:01.752Z,99408.09
2019-03-24T21:00:35.673Z,99407.81
2019-03-24T21:03:05.653Z,99408.92
2019-03-24T21:05:33.287Z,99415.05
2019-03-24T21:08:00.247Z,99414.20
2019-03-24T21:10:27.108Z,99413.11
2019-03-24T21:12:54.009Z,99425.10
2019-03-24T21:15:20.963Z,99420.82
2019-03-24T21:17:48.043Z,99426.03
2019-03-24T21:20:14.966Z,99425.27
2019-03-24T21:22:42.360Z,99419.19
2019-03-24T21:25:10.182Z,99427.67
2019-03-24T21:27:37.918Z,99423.88
2019-03-24T21:30:09.903Z,99424.27
2019-03-24T21:32:37.076Z,99420.20
2019-03-24T21:35:06.136Z,99418.07
2019-03-24T21:37:33.109Z,99415.45
2019-03-24T21:40:00.044Z,99419.78
2019-03-24T21:42:27.432Z,99423.63
2019-03-24T21:44:54.597Z,99413.36
2019-03-24T21:47:21.392Z,99415.30
2019-03-24T21:49:48.265Z,99414.25
2019-03-24T21:52:15.072Z,99407.28
2019-03-24T21:54:42.030Z,99405.99
2019-03-24T21:57:09.209Z,99401.41
2019-03-24T21:59:36.039Z,99401.13
2019-03-24T22:02:03.422Z,99402.50
2019-03-24T22:04:31.064Z,99405.16
2019-03-24T22:06:58.753Z,99403.02
2019-03-24T22:09:26.429Z,99403.92
2019-03-24T22:11:53.706Z,99400.11
2019-03-24T22:14:20.571Z,99402.05
2019-03-24T22:16:47.961Z,99401.64
2019-03-24T22:19:15.585Z,99404.83
2019-03-24T22:21:42.446Z,99399.64
2019-03-24T22:24:09.345Z,99397.98
2019-03-24T22:26:38.814Z,99398.16
2019-03-24T22:29:05.699Z,99393.03
2019-03-24T22:31:32.502Z,99395.23
2019-03-24T22:33:59.263Z,99392.80
2019-03-24T22:36:26.076Z,99392.80
2019-03-24T22:38:52.857Z,99391.23
2019-03-24T22:41:19.897Z,99388.53
2019-03-24T22:43:46.922Z,99389.83
2019-03-24T22:46:13.803Z,99383.35
2019-03-24T22:48:40.846Z,99387.23
2019-03-24T22:51:07.721Z,99391.95
2019-03-24T22:53:34.809Z,99390.80
2019-03-24T22:56:01.635Z,99387.55
2019-03-24T22:58:28.840Z,99389.70
2019-03-24T23:00:56.380Z,99391.05
2019-03-24T23:03:25.103Z,99391.62
2019-03-24T23:05:52.628Z,99386.20
2019-03-24T23:08:19.896Z,99382.70
2019-03-24T23:10:46.994Z,99380.89
2019-03-24T23:13:14.225Z,99380.09
2019-03-24T23:15:41.712Z,99380.31
2019-03-24T23:18:08.617Z,99372.73
2019-03-24T23:20:35.523Z,99369.52
2019-03-24T23:23:02.934Z,99373.00
2019-03-24T23:25:29.811Z,99370.81
2019-03-24T23:27:57.149Z,99363.03
2019-03-24T23:30:24.267Z,99365.22
2019-03-24T23:32:51.130Z,99366.58
2019-03-24T23:35:18.016Z,99360.65
2019-03-24T23:37:46.715Z,99359.69
2019-03-24T23:40:14.211Z,99363.18
2019-03-24T23:42:41.287Z,99363.70
2019-03-24T23:45:08.726Z,99360.77
2019-03-24T23:47:35.982Z,99358.43
2019-03-24T23:50:07.147Z,99364.19
2019-03-24T23:52:34.243Z,99360.06
2019-03-24T23:55:01.645Z,99355.20
2019-03-24T23:57:28.388Z,99364.66
2019-03-24T23:59:57.780Z,99352.74
